sensor_id;sensor_type;location;lat;lon;timestamp;P1;durP1;ratioP1;P2;durP2;ratioP2
35699;SDS011;21818;51.078;12.108;2023-03-15T00:01:55;8.63;;;1.27;;
35699;SDS011;21818;51.078;12.108;2023-03-15T00:04:21;7.22;;;1.83;;
35699;SDS011;21818;51.078;12.108;2023-03-15T00:06:48;5.28;;;1.15;;
35699;SDS011;21818;51.078;12.108;2023-03-15T00:09:14;8.57;;;1.65;;
35699;SDS011;21818;51.078;12.108;2023-03-15T00:11:40;8.07;;;1.20;;
35699;SDS011;21818;51.078;12.108;2023-03-15T00:14:06;4.63;;;1.00;;
35699;SDS011;21818;51.078;12.108;2023-03-15T00:16:31;3.55;;;1.02;;
35699;SDS011;21818;51.078;12.108;2023-03-15T00:18:57;6.28;;;1.15;;
35699;SDS011;21818;51.078;12.108;2023-03-15T00:21:23;5.72;;;1.00;;
35699;SDS011;21818;51.078;12.108;2023-03-15T00:23:49;4.47;;;0.82;;
35699;SDS011;21818;51.078;12.108;2023-03-15T00:26:15;5.07;;;1.13;;
35699;SDS011;21818;51.078;12.108;2023-03-15T00:28:40;5.70;;;1.35;;
35699;SDS011;21818;51.078;12.108;2023-03-15T00:31:08;4.35;;;0.98;;
35699;SDS011;21818;51.078;12.108;2023-03-15T00:33:38;9.32;;;1.25;;
35699;SDS011;21818;51.078;12.108;2023-03-15T00:36:05;7.60;;;0.80;;
35699;SDS011;21818;51.078;12.108;2023-03-15T00:38:33;3.58;;;1.25;;
35699;SDS011;21818;51.078;12.108;2023-03-15T00:41:03;6.90;;;0.90;;
35699;SDS011;21818;51.078;12.108;2023-03-15T00:43:32;6.53;;;0.93;;
35699;SDS011;21818;51.078;12.108;2023-03-15T00:45:58;3.30;;;0.77;;
35699;SDS011;21818;51.078;12.108;2023-03-15T00:48:24;5.18;;;1.20;;
35699;SDS011;21818;51.078;12.108;2023-03-15T00:50:50;6.13;;;1.23;;
35699;SDS011;21818;51.078;12.108;2023-03-15T00:53:16;3.08;;;0.98;;
35699;SDS011;21818;51.078;12.108;2023-03-15T00:55:41;4.07;;;1.00;;
35699;SDS011;21818;51.078;12.108;2023-03-15T00:58:07;3.60;;;0.80;;
35699;SDS011;21818;51.078;12.108;2023-03-15T01:00:33;3.55;;;0.95;;
35699;SDS011;21818;51.078;12.108;2023-03-15T01:02:58;5.25;;;1.20;;
35699;SDS011;21818;51.078;12.108;2023-03-15T01:05:24;4.57;;;0.90;;
35699;SDS011;21818;51.078;12.108;2023-03-15T01:07:50;4.13;;;1.13;;
35699;SDS011;21818;51.078;12.108;2023-03-15T01:10:16;10.15;;;1.65;;
35699;SDS011;21818;51.078;12.108;2023-03-15T01:12:43;4.15;;;1.17;;
35699;SDS011;21818;51.078;12.108;2023-03-15T01:15:10;13.95;;;1.77;;
35699;SDS011;21818;51.078;12.108;2023-03-15T01:17:38;7.32;;;1.23;;
35699;SDS011;21818;51.078;12.108;2023-03-15T01:20:04;6.95;;;1.17;;
35699;SDS011;21818;51.078;12.108;2023-03-15T01:22:30;5.75;;;1.40;;
35699;SDS011;21818;51.078;12.108;2023-03-15T01:24:56;4.25;;;1.15;;
35699;SDS011;21818;51.078;12.108;2023-03-15T01:27:22;11.82;;;1.23;;
35699;SDS011;21818;51.078;12.108;2023-03-15T01:29:47;5.65;;;1.02;;
35699;SDS011;21818;51.078;12.108;2023-03-15T01:32:13;6.30;;;1.38;;
35699;SDS011;21818;51.078;12.108;2023-03-15T01:34:38;5.20;;;0.80;;
35699;SDS011;21818;51.078;12.108;2023-03-15T01:37:04;4.25;;;1.00;;
35699;SDS011;21818;51.078;12.108;2023-03-15T01:39:30;7.35;;;1.10;;
35699;SDS011;21818;51.078;12.108;2023-03-15T01:41:56;3.83;;;1.17;;
35699;SDS011;21818;51.078;12.108;2023-03-15T01:44:22;5.28;;;0.93;;
35699;SDS011;21818;51.078;12.108;2023-03-15T01:46:48;2.28;;;0.85;;
35699;SDS011;21818;51.078;12.108;2023-03-15T01:52:02;7.82;;;1.17;;
35699;SDS011;21818;51.078;12.108;2023-03-15T01:54:45;4.80;;;1.10;;
35699;SDS011;21818;51.078;12.108;2023-03-15T01:59:51;5.22;;;0.95;;
35699;SDS011;21818;51.078;12.108;2023-03-15T02:02:21;5.68;;;0.95;;
35699;SDS011;21818;51.078;12.108;2023-03-15T02:04:50;8.18;;;1.10;;
35699;SDS011;21818;51.078;12.108;2023-03-15T02:07:21;4.78;;;1.02;;
35699;SDS011;21818;51.078;12.108;2023-03-15T02:09:50;5.65;;;1.13;;
35699;SDS011;21818;51.078;12.108;2023-03-15T02:12:24;3.35;;;1.25;;
35699;SDS011;21818;51.078;12.108;2023-03-15T02:14:51;6.10;;;1.10;;
35699;SDS011;21818;51.078;12.108;2023-03-15T02:17:18;4.95;;;1.08;;
35699;SDS011;21818;51.078;12.108;2023-03-15T02:22:49;5.13;;;1.63;;
35699;SDS011;21818;51.078;12.108;2023-03-15T02:28:17;3.33;;;0.95;;
35699;SDS011;21818;51.078;12.108;2023-03-15T02:30:44;6.35;;;1.08;;
35699;SDS011;21818;51.078;12.108;2023-03-15T02:33:16;3.53;;;1.05;;
35699;SDS011;21818;51.078;12.108;2023-03-15T02:35:46;11.50;;;1.85;;
35699;SDS011;21818;51.078;12.108;2023-03-15T02:38:12;5.22;;;1.08;;
35699;SDS011;21818;51.078;12.108;2023-03-15T02:40:37;7.38;;;1.15;;
35699;SDS011;21818;51.078;12.108;2023-03-15T02:43:04;11.75;;;1.23;;
35699;SDS011;21818;51.078;12.108;2023-03-15T02:45:34;4.88;;;0.70;;
35699;SDS011;21818;51.078;12.108;2023-03-15T02:48:02;5.53;;;1.13;;
35699;SDS011;21818;51.078;12.108;2023-03-15T02:50:29;6.72;;;1.20;;
35699;SDS011;21818;51.078;12.108;2023-03-15T02:52:55;9.02;;;1.48;;
35699;SDS011;21818;51.078;12.108;2023-03-15T02:55:20;4.10;;;0.85;;
35699;SDS011;21818;51.078;12.108;2023-03-15T02:57:46;4.18;;;1.00;;
35699;SDS011;21818;51.078;12.108;2023-03-15T03:00:12;5.78;;;0.90;;
35699;SDS011;21818;51.078;12.108;2023-03-15T03:02:43;5.75;;;1.00;;
35699;SDS011;21818;51.078;12.108;2023-03-15T03:05:10;7.03;;;1.20;;
35699;SDS011;21818;51.078;12.108;2023-03-15T03:07:37;6.65;;;1.10;;
35699;SDS011;21818;51.078;12.108;2023-03-15T03:10:03;2.63;;;1.00;;
35699;SDS011;21818;51.078;12.108;2023-03-15T03:12:30;9.35;;;1.23;;
35699;SDS011;21818;51.078;12.108;2023-03-15T03:14:55;6.38;;;0.85;;
35699;SDS011;21818;51.078;12.108;2023-03-15T03:17:21;4.00;;;1.02;;
35699;SDS011;21818;51.078;12.108;2023-03-15T03:19:47;7.65;;;1.15;;
35699;SDS011;21818;51.078;12.108;2023-03-15T03:22:13;5.60;;;0.90;;
35699;SDS011;21818;51.078;12.108;2023-03-15T03:24:38;6.63;;;1.23;;
35699;SDS011;21818;51.078;12.108;2023-03-15T03:27:04;5.45;;;1.40;;
35699;SDS011;21818;51.078;12.108;2023-03-15T03:29:30;5.05;;;0.73;;
35699;SDS011;21818;51.078;12.108;2023-03-15T03:31:55;5.15;;;0.73;;
35699;SDS011;21818;51.078;12.108;2023-03-15T03:34:21;5.30;;;0.98;;
35699;SDS011;21818;51.078;12.108;2023-03-15T03:36:47;4.60;;;1.10;;
35699;SDS011;21818;51.078;12.108;2023-03-15T03:39:13;7.22;;;1.35;;
35699;SDS011;21818;51.078;12.108;2023-03-15T03:41:38;5.78;;;1.27;;
35699;SDS011;21818;51.078;12.108;2023-03-15T03:44:04;4.65;;;0.90;;
35699;SDS011;21818;51.078;12.108;2023-03-15T03:46:30;5.00;;;1.17;;
35699;SDS011;21818;51.078;12.108;2023-03-15T03:48:55;6.55;;;1.25;;
35699;SDS011;21818;51.078;12.108;2023-03-15T03:51:21;10.07;;;1.00;;
35699;SDS011;21818;51.078;12.108;2023-03-15T03:53:47;5.22;;;1.13;;
35699;SDS011;21818;51.078;12.108;2023-03-15T03:56:12;3.88;;;1.00;;
35699;SDS011;21818;51.078;12.108;2023-03-15T03:58:38;5.40;;;1.17;;
35699;SDS011;21818;51.078;12.108;2023-03-15T04:01:03;8.13;;;0.93;;
35699;SDS011;21818;51.078;12.108;2023-03-15T04:03:29;6.22;;;1.05;;
35699;SDS011;21818;51.078;12.108;2023-03-15T04:05:57;7.47;;;1.40;;
35699;SDS011;21818;51.078;12.108;2023-03-15T04:08:23;4.47;;;1.27;;
35699;SDS011;21818;51.078;12.108;2023-03-15T04:10:50;4.75;;;1.48;;
35699;SDS011;21818;51.078;12.108;2023-03-15T04:13:17;7.75;;;1.20;;
35699;SDS011;21818;51.078;12.108;2023-03-15T04:15:55;10.05;;;1.10;;
35699;SDS011;21818;51.078;12.108;2023-03-15T04:18:21;5.70;;;1.17;;
35699;SDS011;21818;51.078;12.108;2023-03-15T04:20:47;5.03;;;0.90;;
35699;SDS011;21818;51.078;12.108;2023-03-15T04:23:13;4.80;;;1.05;;
35699;SDS011;21818;51.078;12.108;2023-03-15T04:25:39;4.47;;;1.00;;
35699;SDS011;21818;51.078;12.108;2023-03-15T04:28:06;3.65;;;0.85;;
35699;SDS011;21818;51.078;12.108;2023-03-15T04:30:34;7.40;;;1.63;;
35699;SDS011;21818;51.078;12.108;2023-03-15T04:33:01;3.72;;;0.70;;
35699;SDS011;21818;51.078;12.108;2023-03-15T04:35:34;5.80;;;0.98;;
35699;SDS011;21818;51.078;12.108;2023-03-15T04:38:01;5.32;;;0.82;;
35699;SDS011;21818;51.078;12.108;2023-03-15T04:40:28;6.75;;;1.13;;
35699;SDS011;21818;51.078;12.108;2023-03-15T04:42:54;4.15;;;1.00;;
35699;SDS011;21818;51.078;12.108;2023-03-15T04:45:21;8.13;;;1.55;;
35699;SDS011;21818;51.078;12.108;2023-03-15T04:47:48;5.70;;;1.20;;
35699;SDS011;21818;51.078;12.108;2023-03-15T04:50:14;5.80;;;1.40;;
35699;SDS011;21818;51.078;12.108;2023-03-15T04:52:40;8.00;;;1.10;;
35699;SDS011;21818;51.078;12.108;2023-03-15T04:55:06;5.25;;;1.05;;
35699;SDS011;21818;51.078;12.108;2023-03-15T04:57:32;8.82;;;1.00;;
35699;SDS011;21818;51.078;12.108;2023-03-15T04:59:57;4.30;;;0.90;;
35699;SDS011;21818;51.078;12.108;2023-03-15T05:02:23;5.45;;;1.38;;
35699;SDS011;21818;51.078;12.108;2023-03-15T05:04:49;7.38;;;1.42;;
35699;SDS011;21818;51.078;12.108;2023-03-15T05:07:14;4.93;;;1.05;;
35699;SDS011;21818;51.078;12.108;2023-03-15T05:09:40;3.25;;;0.82;;
35699;SDS011;21818;51.078;12.108;2023-03-15T05:12:06;9.52;;;0.95;;
35699;SDS011;21818;51.078;12.108;2023-03-15T05:14:32;6.55;;;1.13;;
35699;SDS011;21818;51.078;12.108;2023-03-15T05:16:57;4.07;;;1.00;;
35699;SDS011;21818;51.078;12.108;2023-03-15T05:19:26;8.70;;;1.10;;
35699;SDS011;21818;51.078;12.108;2023-03-15T05:21:52;11.50;;;1.50;;
35699;SDS011;21818;51.078;12.108;2023-03-15T05:24:18;5.72;;;1.25;;
35699;SDS011;21818;51.078;12.108;2023-03-15T05:26:47;4.40;;;0.95;;
35699;SDS011;21818;51.078;12.108;2023-03-15T05:29:13;2.15;;;0.60;;
35699;SDS011;21818;51.078;12.108;2023-03-15T05:31:39;5.40;;;0.95;;
35699;SDS011;21818;51.078;12.108;2023-03-15T05:34:05;3.83;;;1.30;;
35699;SDS011;21818;51.078;12.108;2023-03-15T05:36:31;4.35;;;0.95;;
35699;SDS011;21818;51.078;12.108;2023-03-15T05:38:58;8.68;;;0.95;;
35699;SDS011;21818;51.078;12.108;2023-03-15T05:41:24;3.78;;;0.85;;
35699;SDS011;21818;51.078;12.108;2023-03-15T05:43:49;3.30;;;0.98;;
35699;SDS011;21818;51.078;12.108;2023-03-15T05:46:15;7.57;;;1.40;;
35699;SDS011;21818;51.078;12.108;2023-03-15T05:48:41;3.47;;;0.80;;
35699;SDS011;21818;51.078;12.108;2023-03-15T05:51:07;4.47;;;1.05;;
35699;SDS011;21818;51.078;12.108;2023-03-15T05:53:32;5.40;;;1.23;;
35699;SDS011;21818;51.078;12.108;2023-03-15T05:56:00;6.82;;;1.00;;
35699;SDS011;21818;51.078;12.108;2023-03-15T05:58:26;4.75;;;1.00;;
35699;SDS011;21818;51.078;12.108;2023-03-15T06:00:51;2.95;;;0.75;;
35699;SDS011;21818;51.078;12.108;2023-03-15T06:03:17;6.07;;;1.00;;
35699;SDS011;21818;51.078;12.108;2023-03-15T06:05:43;6.65;;;1.17;;
35699;SDS011;21818;51.078;12.108;2023-03-15T06:08:08;5.82;;;0.90;;
35699;SDS011;21818;51.078;12.108;2023-03-15T06:10:34;7.00;;;0.98;;
35699;SDS011;21818;51.078;12.108;2023-03-15T06:13:00;6.15;;;0.95;;
35699;SDS011;21818;51.078;12.108;2023-03-15T06:15:25;11.82;;;1.30;;
35699;SDS011;21818;51.078;12.108;2023-03-15T06:17:51;2.88;;;0.85;;
35699;SDS011;21818;51.078;12.108;2023-03-15T06:20:17;6.07;;;1.30;;
35699;SDS011;21818;51.078;12.108;2023-03-15T06:22:42;9.70;;;1.35;;
35699;SDS011;21818;51.078;12.108;2023-03-15T06:25:08;4.13;;;0.95;;
35699;SDS011;21818;51.078;12.108;2023-03-15T06:27:34;5.43;;;0.90;;
35699;SDS011;21818;51.078;12.108;2023-03-15T06:30:01;5.43;;;1.13;;
35699;SDS011;21818;51.078;12.108;2023-03-15T06:32:27;6.72;;;1.20;;
35699;SDS011;21818;51.078;12.108;2023-03-15T06:34:53;4.88;;;1.10;;
35699;SDS011;21818;51.078;12.108;2023-03-15T06:37:18;6.30;;;1.30;;
35699;SDS011;21818;51.078;12.108;2023-03-15T06:39:45;3.25;;;0.75;;
35699;SDS011;21818;51.078;12.108;2023-03-15T06:42:11;5.50;;;0.82;;
35699;SDS011;21818;51.078;12.108;2023-03-15T06:44:38;5.40;;;0.98;;
35699;SDS011;21818;51.078;12.108;2023-03-15T06:47:04;2.45;;;1.13;;
35699;SDS011;21818;51.078;12.108;2023-03-15T06:49:30;9.52;;;1.20;;
35699;SDS011;21818;51.078;12.108;2023-03-15T06:51:56;4.57;;;0.90;;
35699;SDS011;21818;51.078;12.108;2023-03-15T06:54:22;2.30;;;0.90;;
35699;SDS011;21818;51.078;12.108;2023-03-15T06:56:48;4.00;;;0.98;;
35699;SDS011;21818;51.078;12.108;2023-03-15T06:59:14;5.63;;;1.25;;
35699;SDS011;21818;51.078;12.108;2023-03-15T07:01:39;9.25;;;1.30;;
35699;SDS011;21818;51.078;12.108;2023-03-15T07:04:06;8.95;;;1.38;;
35699;SDS011;21818;51.078;12.108;2023-03-15T07:06:32;6.70;;;1.48;;
35699;SDS011;21818;51.078;12.108;2023-03-15T07:08:58;5.80;;;1.10;;
35699;SDS011;21818;51.078;12.108;2023-03-15T07:11:23;7.50;;;1.20;;
35699;SDS011;21818;51.078;12.108;2023-03-15T07:13:49;4.15;;;0.98;;
35699;SDS011;21818;51.078;12.108;2023-03-15T07:16:14;4.85;;;1.50;;
35699;SDS011;21818;51.078;12.108;2023-03-15T07:18:40;9.00;;;1.40;;
35699;SDS011;21818;51.078;12.108;2023-03-15T07:21:05;4.25;;;1.08;;
35699;SDS011;21818;51.078;12.108;2023-03-15T07:23:32;7.20;;;1.38;;
35699;SDS011;21818;51.078;12.108;2023-03-15T07:25:57;5.32;;;1.15;;
35699;SDS011;21818;51.078;12.108;2023-03-15T07:28:24;3.40;;;1.02;;
35699;SDS011;21818;51.078;12.108;2023-03-15T07:30:52;4.43;;;1.30;;
35699;SDS011;21818;51.078;12.108;2023-03-15T07:33:19;4.07;;;1.33;;
35699;SDS011;21818;51.078;12.108;2023-03-15T07:35:51;5.80;;;1.63;;
35699;SDS011;21818;51.078;12.108;2023-03-15T07:38:17;8.20;;;1.55;;
35699;SDS011;21818;51.078;12.108;2023-03-15T07:40:44;5.20;;;1.10;;
35699;SDS011;21818;51.078;12.108;2023-03-15T07:43:10;16.00;;;2.90;;
35699;SDS011;21818;51.078;12.108;2023-03-15T07:45:35;13.38;;;2.35;;
35699;SDS011;21818;51.078;12.108;2023-03-15T07:48:01;6.53;;;2.40;;
35699;SDS011;21818;51.078;12.108;2023-03-15T07:50:27;10.32;;;1.48;;
35699;SDS011;21818;51.078;12.108;2023-03-15T07:52:52;10.68;;;1.65;;
35699;SDS011;21818;51.078;12.108;2023-03-15T07:55:18;13.73;;;2.03;;
35699;SDS011;21818;51.078;12.108;2023-03-15T07:57:43;9.50;;;2.17;;
35699;SDS011;21818;51.078;12.108;2023-03-15T08:00:09;9.65;;;2.03;;
35699;SDS011;21818;51.078;12.108;2023-03-15T08:02:37;8.85;;;1.77;;
35699;SDS011;21818;51.078;12.108;2023-03-15T08:05:04;10.70;;;2.30;;
35699;SDS011;21818;51.078;12.108;2023-03-15T08:07:30;10.35;;;1.42;;
35699;SDS011;21818;51.078;12.108;2023-03-15T08:09:56;13.07;;;2.00;;
35699;SDS011;21818;51.078;12.108;2023-03-15T08:12:25;9.25;;;1.63;;
35699;SDS011;21818;51.078;12.108;2023-03-15T08:14:51;6.57;;;1.45;;
35699;SDS011;21818;51.078;12.108;2023-03-15T08:17:17;9.18;;;1.83;;
35699;SDS011;21818;51.078;12.108;2023-03-15T08:19:43;10.38;;;1.70;;
35699;SDS011;21818;51.078;12.108;2023-03-15T08:22:09;6.82;;;1.33;;
35699;SDS011;21818;51.078;12.108;2023-03-15T08:24:35;9.43;;;2.33;;
35699;SDS011;21818;51.078;12.108;2023-03-15T08:27:01;9.15;;;2.33;;
35699;SDS011;21818;51.078;12.108;2023-03-15T08:29:27;12.15;;;2.60;;
35699;SDS011;21818;51.078;12.108;2023-03-15T08:31:53;7.38;;;1.58;;
35699;SDS011;21818;51.078;12.108;2023-03-15T08:34:19;10.25;;;1.65;;
35699;SDS011;21818;51.078;12.108;2023-03-15T08:36:45;7.53;;;1.63;;
35699;SDS011;21818;51.078;12.108;2023-03-15T08:39:12;6.30;;;2.17;;
35699;SDS011;21818;51.078;12.108;2023-03-15T08:41:38;10.38;;;2.00;;
35699;SDS011;21818;51.078;12.108;2023-03-15T08:44:04;10.32;;;2.83;;
35699;SDS011;21818;51.078;12.108;2023-03-15T08:46:30;9.40;;;1.85;;
35699;SDS011;21818;51.078;12.108;2023-03-15T08:48:57;7.50;;;1.48;;
35699;SDS011;21818;51.078;12.108;2023-03-15T08:51:23;7.50;;;1.27;;
35699;SDS011;21818;51.078;12.108;2023-03-15T08:53:50;7.97;;;1.65;;
35699;SDS011;21818;51.078;12.108;2023-03-15T08:56:16;7.28;;;1.85;;
35699;SDS011;21818;51.078;12.108;2023-03-15T08:58:42;7.65;;;1.52;;
35699;SDS011;21818;51.078;12.108;2023-03-15T09:01:09;7.00;;;1.50;;
35699;SDS011;21818;51.078;12.108;2023-03-15T09:03:35;5.55;;;1.58;;
35699;SDS011;21818;51.078;12.108;2023-03-15T09:06:01;4.88;;;2.15;;
35699;SDS011;21818;51.078;12.108;2023-03-15T09:08:27;7.00;;;1.73;;
35699;SDS011;21818;51.078;12.108;2023-03-15T09:10:55;5.57;;;1.20;;
35699;SDS011;21818;51.078;12.108;2023-03-15T09:13:22;6.32;;;1.75;;
35699;SDS011;21818;51.078;12.108;2023-03-15T09:15:49;5.90;;;1.60;;
35699;SDS011;21818;51.078;12.108;2023-03-15T09:18:15;8.10;;;1.70;;
35699;SDS011;21818;51.078;12.108;2023-03-15T09:20:41;5.47;;;2.17;;
35699;SDS011;21818;51.078;12.108;2023-03-15T09:23:07;9.43;;;1.85;;
35699;SDS011;21818;51.078;12.108;2023-03-15T09:25:33;5.32;;;1.40;;
35699;SDS011;21818;51.078;12.108;2023-03-15T09:28:00;5.88;;;1.48;;
35699;SDS011;21818;51.078;12.108;2023-03-15T09:30:27;6.38;;;1.42;;
35699;SDS011;21818;51.078;12.108;2023-03-15T09:32:53;6.55;;;1.33;;
35699;SDS011;21818;51.078;12.108;2023-03-15T09:35:18;8.02;;;2.10;;
35699;SDS011;21818;51.078;12.108;2023-03-15T09:37:45;5.03;;;1.45;;
35699;SDS011;21818;51.078;12.108;2023-03-15T09:40:15;4.45;;;1.50;;
35699;SDS011;21818;51.078;12.108;2023-03-15T09:48:04;5.57;;;1.38;;
35699;SDS011;21818;51.078;12.108;2023-03-15T09:51:13;8.80;;;1.80;;
35699;SDS011;21818;51.078;12.108;2023-03-15T09:53:57;5.15;;;1.35;;
35699;SDS011;21818;51.078;12.108;2023-03-15T09:58:56;4.47;;;1.23;;
35699;SDS011;21818;51.078;12.108;2023-03-15T10:01:36;2.95;;;1.13;;
35699;SDS011;21818;51.078;12.108;2023-03-15T10:04:06;4.40;;;1.15;;
35699;SDS011;21818;51.078;12.108;2023-03-15T10:06:52;6.93;;;1.50;;
35699;SDS011;21818;51.078;12.108;2023-03-15T10:09:31;5.97;;;1.85;;
35699;SDS011;21818;51.078;12.108;2023-03-15T10:12:02;5.80;;;1.40;;
35699;SDS011;21818;51.078;12.108;2023-03-15T10:17:05;5.82;;;2.08;;
35699;SDS011;21818;51.078;12.108;2023-03-15T10:19:39;8.75;;;2.00;;
35699;SDS011;21818;51.078;12.108;2023-03-15T10:22:34;4.63;;;1.33;;
35699;SDS011;21818;51.078;12.108;2023-03-15T10:30:24;5.97;;;1.20;;
35699;SDS011;21818;51.078;12.108;2023-03-15T10:35:26;3.28;;;1.23;;
35699;SDS011;21818;51.078;12.108;2023-03-15T10:37:51;10.45;;;3.00;;
35699;SDS011;21818;51.078;12.108;2023-03-15T10:43:10;3.65;;;1.27;;
35699;SDS011;21818;51.078;12.108;2023-03-15T10:46:07;2.83;;;1.00;;
35699;SDS011;21818;51.078;12.108;2023-03-15T10:48:39;5.20;;;1.27;;
35699;SDS011;21818;51.078;12.108;2023-03-15T10:51:20;3.42;;;1.20;;
35699;SDS011;21818;51.078;12.108;2023-03-15T10:56:22;6.13;;;1.33;;
35699;SDS011;21818;51.078;12.108;2023-03-15T10:58:51;7.28;;;1.27;;
35699;SDS011;21818;51.078;12.108;2023-03-15T11:01:36;5.30;;;1.60;;
35699;SDS011;21818;51.078;12.108;2023-03-15T11:14:31;4.20;;;1.15;;
35699;SDS011;21818;51.078;12.108;2023-03-15T11:17:05;7.63;;;1.80;;
35699;SDS011;21818;51.078;12.108;2023-03-15T11:19:35;5.20;;;1.50;;
35699;SDS011;21818;51.078;12.108;2023-03-15T11:22:07;5.50;;;1.48;;
35699;SDS011;21818;51.078;12.108;2023-03-15T11:24:36;5.67;;;0.97;;
35699;SDS011;21818;51.078;12.108;2023-03-15T11:27:03;4.50;;;1.25;;
35699;SDS011;21818;51.078;12.108;2023-03-15T11:29:36;4.82;;;1.10;;
35699;SDS011;21818;51.078;12.108;2023-03-15T11:32:14;3.92;;;1.08;;
35699;SDS011;21818;51.078;12.108;2023-03-15T11:34:59;4.97;;;1.60;;
35699;SDS011;21818;51.078;12.108;2023-03-15T11:37:44;3.85;;;1.10;;
35699;SDS011;21818;51.078;12.108;2023-03-15T11:40:50;8.65;;;1.50;;
35699;SDS011;21818;51.078;12.108;2023-03-15T11:43:21;5.07;;;0.90;;
35699;SDS011;21818;51.078;12.108;2023-03-15T11:45:56;3.70;;;0.90;;
35699;SDS011;21818;51.078;12.108;2023-03-15T11:48:28;5.60;;;0.98;;
35699;SDS011;21818;51.078;12.108;2023-03-15T11:50:56;3.08;;;0.98;;
35699;SDS011;21818;51.078;12.108;2023-03-15T11:53:24;3.70;;;0.95;;
35699;SDS011;21818;51.078;12.108;2023-03-15T11:55:54;3.33;;;1.17;;
35699;SDS011;21818;51.078;12.108;2023-03-15T12:00:59;6.30;;;1.10;;
35699;SDS011;21818;51.078;12.108;2023-03-15T12:03:40;3.38;;;0.85;;
35699;SDS011;21818;51.078;12.108;2023-03-15T12:13:53;2.47;;;0.63;;
35699;SDS011;21818;51.078;12.108;2023-03-15T12:16:29;4.22;;;1.35;;
35699;SDS011;21818;51.078;12.108;2023-03-15T12:19:00;4.75;;;1.55;;
35699;SDS011;21818;51.078;12.108;2023-03-15T12:23:59;2.22;;;0.75;;
35699;SDS011;21818;51.078;12.108;2023-03-15T12:27:03;1.33;;;0.80;;
35699;SDS011;21818;51.078;12.108;2023-03-15T12:29:29;4.55;;;1.40;;
35699;SDS011;21818;51.078;12.108;2023-03-15T12:34:29;2.70;;;0.93;;
35699;SDS011;21818;51.078;12.108;2023-03-15T12:37:19;3.13;;;1.00;;
35699;SDS011;21818;51.078;12.108;2023-03-15T12:44:53;2.95;;;0.90;;
35699;SDS011;21818;51.078;12.108;2023-03-15T12:47:18;5.80;;;1.05;;
35699;SDS011;21818;51.078;12.108;2023-03-15T12:49:44;3.25;;;0.70;;
35699;SDS011;21818;51.078;12.108;2023-03-15T12:57:23;4.30;;;1.15;;
35699;SDS011;21818;51.078;12.108;2023-03-15T12:59:59;2.20;;;0.70;;
35699;SDS011;21818;51.078;12.108;2023-03-15T13:02:31;1.88;;;0.90;;
35699;SDS011;21818;51.078;12.108;2023-03-15T13:05:24;2.70;;;1.00;;
35699;SDS011;21818;51.078;12.108;2023-03-15T13:10:45;3.28;;;0.80;;
35699;SDS011;21818;51.078;12.108;2023-03-15T13:16:16;2.42;;;0.90;;
35699;SDS011;21818;51.078;12.108;2023-03-15T13:19:03;2.00;;;0.98;;
35699;SDS011;21818;51.078;12.108;2023-03-15T13:24:43;2.05;;;0.70;;
35699;SDS011;21818;51.078;12.108;2023-03-15T13:27:43;2.10;;;0.90;;
35699;SDS011;21818;51.078;12.108;2023-03-15T13:30:36;2.90;;;0.70;;
35699;SDS011;21818;51.078;12.108;2023-03-15T13:33:18;2.85;;;0.88;;
35699;SDS011;21818;51.078;12.108;2023-03-15T13:35:53;1.95;;;0.70;;
35699;SDS011;21818;51.078;12.108;2023-03-15T13:40:53;2.90;;;0.80;;
35699;SDS011;21818;51.078;12.108;2023-03-15T13:43:23;1.38;;;0.45;;
35699;SDS011;21818;51.078;12.108;2023-03-15T13:45:50;2.80;;;1.10;;
35699;SDS011;21818;51.078;12.108;2023-03-15T13:48:16;2.10;;;0.65;;
35699;SDS011;21818;51.078;12.108;2023-03-15T13:50:47;3.30;;;0.57;;
35699;SDS011;21818;51.078;12.108;2023-03-15T13:53:21;1.98;;;0.60;;
35699;SDS011;21818;51.078;12.108;2023-03-15T13:55:50;1.20;;;0.60;;
35699;SDS011;21818;51.078;12.108;2023-03-15T13:58:17;2.70;;;0.80;;
35699;SDS011;21818;51.078;12.108;2023-03-15T14:00:43;2.13;;;0.63;;
35699;SDS011;21818;51.078;12.108;2023-03-15T14:03:15;1.45;;;0.85;;
35699;SDS011;21818;51.078;12.108;2023-03-15T14:05:47;1.23;;;0.70;;
35699;SDS011;21818;51.078;12.108;2023-03-15T14:08:20;2.88;;;0.70;;
35699;SDS011;21818;51.078;12.108;2023-03-15T14:10:56;1.83;;;0.65;;
35699;SDS011;21818;51.078;12.108;2023-03-15T14:16:07;1.90;;;0.45;;
35699;SDS011;21818;51.078;12.108;2023-03-15T14:18:40;1.10;;;0.55;;
35699;SDS011;21818;51.078;12.108;2023-03-15T14:21:07;1.42;;;0.60;;
35699;SDS011;21818;51.078;12.108;2023-03-15T14:23:39;0.68;;;0.30;;
35699;SDS011;21818;51.078;12.108;2023-03-15T14:28:47;1.38;;;0.70;;
35699;SDS011;21818;51.078;12.108;2023-03-15T14:31:20;1.10;;;0.60;;
35699;SDS011;21818;51.078;12.108;2023-03-15T14:33:51;4.10;;;0.70;;
35699;SDS011;21818;51.078;12.108;2023-03-15T14:36:57;1.77;;;0.70;;
35699;SDS011;21818;51.078;12.108;2023-03-15T14:42:01;2.47;;;0.70;;
35699;SDS011;21818;51.078;12.108;2023-03-15T14:44:27;1.55;;;0.60;;
35699;SDS011;21818;51.078;12.108;2023-03-15T14:46:52;1.23;;;0.60;;
35699;SDS011;21818;51.078;12.108;2023-03-15T14:49:22;3.70;;;0.70;;
35699;SDS011;21818;51.078;12.108;2023-03-15T14:52:00;1.63;;;0.55;;
35699;SDS011;21818;51.078;12.108;2023-03-15T14:54:28;1.88;;;0.60;;
35699;SDS011;21818;51.078;12.108;2023-03-15T14:56:54;2.33;;;0.70;;
35699;SDS011;21818;51.078;12.108;2023-03-15T14:59:19;1.80;;;0.77;;
35699;SDS011;21818;51.078;12.108;2023-03-15T15:01:50;1.10;;;0.60;;
35699;SDS011;21818;51.078;12.108;2023-03-15T15:04:18;2.90;;;1.08;;
35699;SDS011;21818;51.078;12.108;2023-03-15T15:06:45;1.92;;;0.60;;
35699;SDS011;21818;51.078;12.108;2023-03-15T15:09:20;2.58;;;0.68;;
35699;SDS011;21818;51.078;12.108;2023-03-15T15:11:47;1.83;;;0.80;;
35699;SDS011;21818;51.078;12.108;2023-03-15T15:14:13;2.50;;;0.70;;
35699;SDS011;21818;51.078;12.108;2023-03-15T15:16:40;1.58;;;0.60;;
35699;SDS011;21818;51.078;12.108;2023-03-15T15:19:06;2.80;;;0.68;;
35699;SDS011;21818;51.078;12.108;2023-03-15T15:21:33;2.45;;;0.70;;
35699;SDS011;21818;51.078;12.108;2023-03-15T15:24:00;3.55;;;0.70;;
35699;SDS011;21818;51.078;12.108;2023-03-15T15:26:31;1.80;;;0.50;;
35699;SDS011;21818;51.078;12.108;2023-03-15T15:28:57;1.77;;;0.60;;
35699;SDS011;21818;51.078;12.108;2023-03-15T15:31:25;1.75;;;0.55;;
35699;SDS011;21818;51.078;12.108;2023-03-15T15:33:53;3.80;;;0.77;;
35699;SDS011;21818;51.078;12.108;2023-03-15T15:36:23;2.83;;;0.70;;
35699;SDS011;21818;51.078;12.108;2023-03-15T15:38:51;1.25;;;0.65;;
35699;SDS011;21818;51.078;12.108;2023-03-15T15:41:19;2.05;;;0.50;;
35699;SDS011;21818;51.078;12.108;2023-03-15T15:43:50;1.33;;;0.50;;
35699;SDS011;21818;51.078;12.108;2023-03-15T15:46:16;1.65;;;0.65;;
35699;SDS011;21818;51.078;12.108;2023-03-15T15:48:42;0.95;;;0.50;;
35699;SDS011;21818;51.078;12.108;2023-03-15T15:51:13;0.93;;;0.50;;
35699;SDS011;21818;51.078;12.108;2023-03-15T15:53:49;1.65;;;0.95;;
35699;SDS011;21818;51.078;12.108;2023-03-15T15:56:15;1.85;;;0.75;;
35699;SDS011;21818;51.078;12.108;2023-03-15T15:58:41;1.42;;;0.60;;
35699;SDS011;21818;51.078;12.108;2023-03-15T16:01:12;1.00;;;0.40;;
35699;SDS011;21818;51.078;12.108;2023-03-15T16:03:38;5.50;;;1.03;;
35699;SDS011;21818;51.078;12.108;2023-03-15T16:06:04;1.52;;;0.70;;
35699;SDS011;21818;51.078;12.108;2023-03-15T16:08:32;2.60;;;0.60;;
35699;SDS011;21818;51.078;12.108;2023-03-15T16:11:02;0.90;;;0.45;;
35699;SDS011;21818;51.078;12.108;2023-03-15T16:13:29;2.17;;;0.68;;